sensor_id;sensor_type;location;lat;lon;timestamp;P1;durP1;ratioP1;P2;durP2;ratioP2
64353;SDS011;50681;53.334;-6.536;2024-03-17T00:01:03;10.97;;;6.77;;
64353;SDS011;50681;53.334;-6.536;2024-03-17T00:03:29;11.80;;;7.32;;
64353;SDS011;50681;53.334;-6.536;2024-03-17T00:05:58;18.20;;;8.35;;
64353;SDS011;50681;53.334;-6.536;2024-03-17T00:08:25;13.43;;;6.78;;
64353;SDS011;50681;53.334;-6.536;2024-03-17T00:10:54;13.60;;;6.40;;
64353;SDS011;50681;53.334;-6.536;2024-03-17T00:13:19;15.82;;;6.72;;
64353;SDS011;50681;53.334;-6.536;2024-03-17T00:15:46;19.30;;;6.53;;
64353;SDS011;50681;53.334;-6.536;2024-03-17T00:18:12;10.82;;;5.30;;
64353;SDS011;50681;53.334;-6.536;2024-03-17T00:20:38;17.03;;;6.80;;
64353;SDS011;50681;53.334;-6.536;2024-03-17T00:23:06;19.27;;;6.80;;
64353;SDS011;50681;53.334;-6.536;2024-03-17T00:25:33;12.48;;;6.00;;
64353;SDS011;50681;53.334;-6.536;2024-03-17T00:28:10;26.52;;;6.25;;
64353;SDS011;50681;53.334;-6.536;2024-03-17T00:30:37;20.10;;;5.57;;
64353;SDS011;50681;53.334;-6.536;2024-03-17T00:33:02;16.87;;;5.30;;
64353;SDS011;50681;53.334;-6.536;2024-03-17T00:35:28;18.45;;;5.30;;
64353;SDS011;50681;53.334;-6.536;2024-03-17T00:37:55;22.40;;;5.50;;
64353;SDS011;50681;53.334;-6.536;2024-03-17T00:40:21;16.17;;;5.47;;
64353;SDS011;50681;53.334;-6.536;2024-03-17T00:42:46;22.43;;;5.00;;
64353;SDS011;50681;53.334;-6.536;2024-03-17T00:45:12;14.85;;;5.28;;
64353;SDS011;50681;53.334;-6.536;2024-03-17T00:47:38;25.50;;;6.10;;
64353;SDS011;50681;53.334;-6.536;2024-03-17T00:50:04;24.67;;;5.57;;
64353;SDS011;50681;53.334;-6.536;2024-03-17T00:52:32;18.25;;;5.78;;
64353;SDS011;50681;53.334;-6.536;2024-03-17T00:54:57;21.23;;;5.70;;
64353;SDS011;50681;53.334;-6.536;2024-03-17T00:57:23;23.20;;;6.00;;
64353;SDS011;50681;53.334;-6.536;2024-03-17T00:59:49;30.35;;;5.85;;
64353;SDS011;50681;53.334;-6.536;2024-03-17T01:04:43;21.35;;;5.50;;
64353;SDS011;50681;53.334;-6.536;2024-03-17T01:07:17;20.50;;;5.80;;
64353;SDS011;50681;53.334;-6.536;2024-03-17T01:09:42;22.05;;;5.05;;
64353;SDS011;50681;53.334;-6.536;2024-03-17T01:12:08;31.97;;;5.73;;
64353;SDS011;50681;53.334;-6.536;2024-03-17T01:14:34;20.05;;;5.32;;
64353;SDS011;50681;53.334;-6.536;2024-03-17T01:16:59;27.10;;;6.63;;
64353;SDS011;50681;53.334;-6.536;2024-03-17T01:19:25;32.00;;;8.05;;
64353;SDS011;50681;53.334;-6.536;2024-03-17T01:21:51;21.20;;;7.53;;
64353;SDS011;50681;53.334;-6.536;2024-03-17T01:24:17;19.08;;;6.10;;
64353;SDS011;50681;53.334;-6.536;2024-03-17T01:26:43;27.00;;;6.10;;
64353;SDS011;50681;53.334;-6.536;2024-03-17T01:29:09;18.50;;;6.37;;
64353;SDS011;50681;53.334;-6.536;2024-03-17T01:31:34;20.27;;;5.83;;
64353;SDS011;50681;53.334;-6.536;2024-03-17T01:34:00;26.33;;;6.72;;
64353;SDS011;50681;53.334;-6.536;2024-03-17T01:36:26;38.45;;;8.38;;
64353;SDS011;50681;53.334;-6.536;2024-03-17T01:38:51;34.80;;;7.90;;
64353;SDS011;50681;53.334;-6.536;2024-03-17T01:41:17;24.93;;;8.03;;
64353;SDS011;50681;53.334;-6.536;2024-03-17T01:43:42;19.43;;;6.53;;
64353;SDS011;50681;53.334;-6.536;2024-03-17T01:46:10;23.40;;;7.10;;
64353;SDS011;50681;53.334;-6.536;2024-03-17T01:48:38;25.92;;;7.18;;
64353;SDS011;50681;53.334;-6.536;2024-03-17T01:53:32;24.35;;;8.70;;
64353;SDS011;50681;53.334;-6.536;2024-03-17T01:55:58;20.93;;;6.77;;
64353;SDS011;50681;53.334;-6.536;2024-03-17T01:58:25;30.27;;;8.32;;
64353;SDS011;50681;53.334;-6.536;2024-03-17T02:00:52;20.10;;;6.53;;
64353;SDS011;50681;53.334;-6.536;2024-03-17T02:03:21;20.45;;;6.43;;
64353;SDS011;50681;53.334;-6.536;2024-03-17T02:05:46;33.23;;;9.47;;
64353;SDS011;50681;53.334;-6.536;2024-03-17T02:08:12;20.50;;;7.28;;
64353;SDS011;50681;53.334;-6.536;2024-03-17T02:10:38;27.02;;;7.80;;
64353;SDS011;50681;53.334;-6.536;2024-03-17T02:13:03;27.47;;;8.30;;
64353;SDS011;50681;53.334;-6.536;2024-03-17T02:15:30;27.70;;;7.53;;
64353;SDS011;50681;53.334;-6.536;2024-03-17T02:17:56;18.77;;;6.40;;
64353;SDS011;50681;53.334;-6.536;2024-03-17T02:20:22;20.03;;;6.90;;
64353;SDS011;50681;53.334;-6.536;2024-03-17T02:23:07;23.58;;;6.93;;
64353;SDS011;50681;53.334;-6.536;2024-03-17T02:25:34;26.35;;;7.75;;
64353;SDS011;50681;53.334;-6.536;2024-03-17T02:30:27;28.45;;;7.78;;
64353;SDS011;50681;53.334;-6.536;2024-03-17T02:32:53;23.35;;;8.02;;
64353;SDS011;50681;53.334;-6.536;2024-03-17T02:35:19;25.05;;;6.95;;
64353;SDS011;50681;53.334;-6.536;2024-03-17T02:37:46;30.70;;;7.50;;
64353;SDS011;50681;53.334;-6.536;2024-03-17T02:40:12;29.23;;;8.80;;
64353;SDS011;50681;53.334;-6.536;2024-03-17T02:42:37;27.83;;;9.23;;
64353;SDS011;50681;53.334;-6.536;2024-03-17T02:45:03;37.67;;;11.90;;
64353;SDS011;50681;53.334;-6.536;2024-03-17T02:47:29;31.95;;;11.82;;
64353;SDS011;50681;53.334;-6.536;2024-03-17T02:49:55;29.27;;;10.23;;
64353;SDS011;50681;53.334;-6.536;2024-03-17T02:52:20;27.40;;;9.87;;
64353;SDS011;50681;53.334;-6.536;2024-03-17T02:54:46;32.93;;;10.47;;
64353;SDS011;50681;53.334;-6.536;2024-03-17T02:57:11;25.47;;;7.97;;
64353;SDS011;50681;53.334;-6.536;2024-03-17T02:59:36;20.13;;;6.17;;
64353;SDS011;50681;53.334;-6.536;2024-03-17T03:02:02;20.07;;;6.27;;
64353;SDS011;50681;53.334;-6.536;2024-03-17T03:04:27;24.20;;;6.07;;
64353;SDS011;50681;53.334;-6.536;2024-03-17T03:06:53;23.20;;;6.07;;
64353;SDS011;50681;53.334;-6.536;2024-03-17T03:09:18;23.47;;;6.30;;
64353;SDS011;50681;53.334;-6.536;2024-03-17T03:11:56;26.27;;;7.47;;
64353;SDS011;50681;53.334;-6.536;2024-03-17T03:14:21;25.30;;;5.00;;
64353;SDS011;50681;53.334;-6.536;2024-03-17T03:16:46;27.30;;;6.77;;
64353;SDS011;50681;53.334;-6.536;2024-03-17T03:19:12;28.53;;;5.80;;
64353;SDS011;50681;53.334;-6.536;2024-03-17T03:21:37;25.30;;;5.83;;
64353;SDS011;50681;53.334;-6.536;2024-03-17T03:24:03;37.97;;;6.23;;
64353;SDS011;50681;53.334;-6.536;2024-03-17T03:26:28;18.93;;;5.60;;
64353;SDS011;50681;53.334;-6.536;2024-03-17T03:28:54;27.87;;;5.90;;
64353;SDS011;50681;53.334;-6.536;2024-03-17T03:31:20;27.48;;;6.07;;
64353;SDS011;50681;53.334;-6.536;2024-03-17T03:33:46;23.40;;;7.30;;
64353;SDS011;50681;53.334;-6.536;2024-03-17T03:36:13;26.58;;;7.53;;
64353;SDS011;50681;53.334;-6.536;2024-03-17T03:38:40;26.98;;;6.55;;
64353;SDS011;50681;53.334;-6.536;2024-03-17T03:41:09;24.80;;;6.63;;
64353;SDS011;50681;53.334;-6.536;2024-03-17T03:43:44;24.60;;;6.30;;
64353;SDS011;50681;53.334;-6.536;2024-03-17T03:46:11;21.98;;;7.15;;
64353;SDS011;50681;53.334;-6.536;2024-03-17T03:48:37;21.97;;;6.73;;
64353;SDS011;50681;53.334;-6.536;2024-03-17T03:51:03;24.07;;;5.97;;
64353;SDS011;50681;53.334;-6.536;2024-03-17T03:53:30;22.70;;;6.32;;
64353;SDS011;50681;53.334;-6.536;2024-03-17T03:55:55;21.88;;;6.97;;
64353;SDS011;50681;53.334;-6.536;2024-03-17T03:58:21;25.00;;;6.63;;
64353;SDS011;50681;53.334;-6.536;2024-03-17T04:00:56;29.67;;;7.50;;
64353;SDS011;50681;53.334;-6.536;2024-03-17T04:03:22;32.63;;;9.38;;
64353;SDS011;50681;53.334;-6.536;2024-03-17T04:05:47;26.95;;;7.90;;
64353;SDS011;50681;53.334;-6.536;2024-03-17T04:08:13;21.87;;;8.27;;
64353;SDS011;50681;53.334;-6.536;2024-03-17T04:10:38;29.87;;;8.77;;
64353;SDS011;50681;53.334;-6.536;2024-03-17T04:13:03;22.20;;;7.23;;
64353;SDS011;50681;53.334;-6.536;2024-03-17T04:15:29;28.07;;;7.60;;
64353;SDS011;50681;53.334;-6.536;2024-03-17T04:17:54;22.77;;;8.00;;
64353;SDS011;50681;53.334;-6.536;2024-03-17T04:20:20;25.43;;;7.37;;
64353;SDS011;50681;53.334;-6.536;2024-03-17T04:22:46;24.52;;;7.35;;
64353;SDS011;50681;53.334;-6.536;2024-03-17T04:25:13;19.92;;;8.00;;
64353;SDS011;50681;53.334;-6.536;2024-03-17T04:27:39;15.43;;;7.68;;
64353;SDS011;50681;53.334;-6.536;2024-03-17T04:30:05;28.90;;;8.33;;
64353;SDS011;50681;53.334;-6.536;2024-03-17T04:32:31;26.15;;;7.55;;
64353;SDS011;50681;53.334;-6.536;2024-03-17T04:37:23;20.27;;;8.02;;
64353;SDS011;50681;53.334;-6.536;2024-03-17T04:39:49;24.02;;;8.05;;
64353;SDS011;50681;53.334;-6.536;2024-03-17T04:42:16;24.50;;;7.85;;
64353;SDS011;50681;53.334;-6.536;2024-03-17T04:44:43;33.83;;;8.25;;
64353;SDS011;50681;53.334;-6.536;2024-03-17T04:47:10;29.45;;;8.98;;
64353;SDS011;50681;53.334;-6.536;2024-03-17T04:52:01;24.98;;;7.75;;
64353;SDS011;50681;53.334;-6.536;2024-03-17T04:54:27;34.13;;;8.07;;
64353;SDS011;50681;53.334;-6.536;2024-03-17T04:56:52;21.97;;;8.10;;
64353;SDS011;50681;53.334;-6.536;2024-03-17T04:59:18;23.23;;;8.77;;
64353;SDS011;50681;53.334;-6.536;2024-03-17T05:01:43;26.27;;;8.17;;
64353;SDS011;50681;53.334;-6.536;2024-03-17T05:04:09;24.67;;;8.10;;
64353;SDS011;50681;53.334;-6.536;2024-03-17T05:06:35;35.80;;;10.38;;
64353;SDS011;50681;53.334;-6.536;2024-03-17T05:09:00;27.60;;;8.97;;
64353;SDS011;50681;53.334;-6.536;2024-03-17T05:11:26;27.73;;;7.50;;
64353;SDS011;50681;53.334;-6.536;2024-03-17T05:13:51;28.70;;;7.65;;
64353;SDS011;50681;53.334;-6.536;2024-03-17T05:16:17;21.67;;;8.17;;
64353;SDS011;50681;53.334;-6.536;2024-03-17T05:18:42;33.23;;;7.60;;
64353;SDS011;50681;53.334;-6.536;2024-03-17T05:21:08;29.87;;;8.53;;
64353;SDS011;50681;53.334;-6.536;2024-03-17T05:23:35;30.45;;;8.90;;
64353;SDS011;50681;53.334;-6.536;2024-03-17T05:26:02;39.78;;;7.40;;
64353;SDS011;50681;53.334;-6.536;2024-03-17T05:28:29;28.88;;;7.38;;
64353;SDS011;50681;53.334;-6.536;2024-03-17T05:33:22;29.25;;;7.65;;
64353;SDS011;50681;53.334;-6.536;2024-03-17T05:35:52;32.22;;;8.73;;
64353;SDS011;50681;53.334;-6.536;2024-03-17T05:38:19;29.83;;;7.43;;
64353;SDS011;50681;53.334;-6.536;2024-03-17T05:41:04;39.45;;;8.07;;
64353;SDS011;50681;53.334;-6.536;2024-03-17T05:43:34;27.30;;;6.70;;
64353;SDS011;50681;53.334;-6.536;2024-03-17T05:46:07;32.60;;;7.72;;
64353;SDS011;50681;53.334;-6.536;2024-03-17T05:48:39;33.08;;;6.90;;
64353;SDS011;50681;53.334;-6.536;2024-03-17T05:51:06;34.05;;;7.97;;
64353;SDS011;50681;53.334;-6.536;2024-03-17T05:53:32;23.63;;;7.25;;
64353;SDS011;50681;53.334;-6.536;2024-03-17T05:55:59;26.27;;;8.35;;
64353;SDS011;50681;53.334;-6.536;2024-03-17T05:58:25;25.88;;;6.97;;
64353;SDS011;50681;53.334;-6.536;2024-03-17T06:00:50;22.83;;;7.05;;
64353;SDS011;50681;53.334;-6.536;2024-03-17T06:03:16;26.40;;;6.70;;
64353;SDS011;50681;53.334;-6.536;2024-03-17T06:05:42;27.08;;;7.35;;
64353;SDS011;50681;53.334;-6.536;2024-03-17T06:08:09;38.10;;;7.43;;
64353;SDS011;50681;53.334;-6.536;2024-03-17T06:10:36;26.85;;;7.00;;
64353;SDS011;50681;53.334;-6.536;2024-03-17T06:13:03;20.92;;;7.18;;
64353;SDS011;50681;53.334;-6.536;2024-03-17T06:15:29;30.05;;;7.03;;
64353;SDS011;50681;53.334;-6.536;2024-03-17T06:17:55;25.60;;;7.28;;
64353;SDS011;50681;53.334;-6.536;2024-03-17T06:20:23;22.90;;;6.60;;
64353;SDS011;50681;53.334;-6.536;2024-03-17T06:22:52;31.58;;;7.03;;
64353;SDS011;50681;53.334;-6.536;2024-03-17T06:25:18;25.27;;;8.10;;
64353;SDS011;50681;53.334;-6.536;2024-03-17T06:27:43;28.50;;;5.87;;
64353;SDS011;50681;53.334;-6.536;2024-03-17T06:30:12;28.67;;;6.13;;
64353;SDS011;50681;53.334;-6.536;2024-03-17T06:32:41;27.25;;;6.43;;
64353;SDS011;50681;53.334;-6.536;2024-03-17T06:35:10;26.35;;;5.40;;
64353;SDS011;50681;53.334;-6.536;2024-03-17T06:37:40;26.20;;;4.97;;
64353;SDS011;50681;53.334;-6.536;2024-03-17T06:40:06;29.00;;;5.22;;
64353;SDS011;50681;53.334;-6.536;2024-03-17T06:42:36;23.38;;;4.88;;
64353;SDS011;50681;53.334;-6.536;2024-03-17T06:45:02;33.22;;;4.60;;
64353;SDS011;50681;53.334;-6.536;2024-03-17T06:47:28;19.60;;;4.70;;
64353;SDS011;50681;53.334;-6.536;2024-03-17T06:49:54;35.30;;;4.90;;
64353;SDS011;50681;53.334;-6.536;2024-03-17T06:52:20;25.35;;;4.85;;
64353;SDS011;50681;53.334;-6.536;2024-03-17T06:54:46;20.43;;;4.30;;
64353;SDS011;50681;53.334;-6.536;2024-03-17T06:57:14;28.95;;;5.03;;
64353;SDS011;50681;53.334;-6.536;2024-03-17T06:59:40;31.33;;;5.80;;
64353;SDS011;50681;53.334;-6.536;2024-03-17T07:02:06;21.53;;;4.90;;
64353;SDS011;50681;53.334;-6.536;2024-03-17T07:04:32;30.77;;;6.38;;
64353;SDS011;50681;53.334;-6.536;2024-03-17T07:06:57;18.63;;;4.80;;
64353;SDS011;50681;53.334;-6.536;2024-03-17T07:09:23;26.13;;;5.13;;
64353;SDS011;50681;53.334;-6.536;2024-03-17T07:11:49;30.90;;;5.50;;
64353;SDS011;50681;53.334;-6.536;2024-03-17T07:14:14;20.60;;;5.60;;
64353;SDS011;50681;53.334;-6.536;2024-03-17T07:16:40;18.67;;;4.87;;
64353;SDS011;50681;53.334;-6.536;2024-03-17T07:19:05;28.37;;;5.27;;
64353;SDS011;50681;53.334;-6.536;2024-03-17T07:21:30;26.70;;;5.37;;
64353;SDS011;50681;53.334;-6.536;2024-03-17T07:23:59;21.60;;;4.70;;
64353;SDS011;50681;53.334;-6.536;2024-03-17T07:26:29;24.05;;;5.38;;
64353;SDS011;50681;53.334;-6.536;2024-03-17T07:28:55;14.93;;;4.25;;
64353;SDS011;50681;53.334;-6.536;2024-03-17T07:31:20;22.40;;;4.90;;
64353;SDS011;50681;53.334;-6.536;2024-03-17T07:33:46;27.00;;;5.83;;
64353;SDS011;50681;53.334;-6.536;2024-03-17T07:36:11;20.83;;;5.83;;
64353;SDS011;50681;53.334;-6.536;2024-03-17T07:38:37;14.03;;;5.50;;
64353;SDS011;50681;53.334;-6.536;2024-03-17T07:41:03;14.57;;;4.83;;
64353;SDS011;50681;53.334;-6.536;2024-03-17T07:43:37;20.10;;;5.07;;
64353;SDS011;50681;53.334;-6.536;2024-03-17T07:46:04;16.10;;;6.95;;
64353;SDS011;50681;53.334;-6.536;2024-03-17T07:48:31;15.77;;;4.07;;
64353;SDS011;50681;53.334;-6.536;2024-03-17T07:50:59;16.67;;;3.95;;
64353;SDS011;50681;53.334;-6.536;2024-03-17T07:53:35;19.60;;;4.38;;
64353;SDS011;50681;53.334;-6.536;2024-03-17T07:56:07;17.00;;;4.15;;
64353;SDS011;50681;53.334;-6.536;2024-03-17T07:58:35;27.27;;;4.63;;
64353;SDS011;50681;53.334;-6.536;2024-03-17T08:01:07;19.77;;;4.40;;
64353;SDS011;50681;53.334;-6.536;2024-03-17T08:03:36;16.80;;;4.13;;
64353;SDS011;50681;53.334;-6.536;2024-03-17T08:06:03;23.13;;;3.53;;
64353;SDS011;50681;53.334;-6.536;2024-03-17T08:08:29;16.20;;;3.40;;
64353;SDS011;50681;53.334;-6.536;2024-03-17T08:10:56;14.95;;;3.20;;
64353;SDS011;50681;53.334;-6.536;2024-03-17T08:13:22;12.82;;;2.80;;
64353;SDS011;50681;53.334;-6.536;2024-03-17T08:15:58;13.40;;;3.08;;
64353;SDS011;50681;53.334;-6.536;2024-03-17T08:18:24;20.33;;;3.60;;
64353;SDS011;50681;53.334;-6.536;2024-03-17T08:20:52;19.67;;;3.00;;
64353;SDS011;50681;53.334;-6.536;2024-03-17T08:23:19;15.88;;;2.53;;
64353;SDS011;50681;53.334;-6.536;2024-03-17T08:25:54;16.90;;;3.25;;
64353;SDS011;50681;53.334;-6.536;2024-03-17T08:28:21;12.75;;;2.67;;
64353;SDS011;50681;53.334;-6.536;2024-03-17T08:30:50;18.08;;;2.83;;
64353;SDS011;50681;53.334;-6.536;2024-03-17T08:33:17;15.18;;;3.03;;
64353;SDS011;50681;53.334;-6.536;2024-03-17T08:35:42;18.10;;;2.60;;
64353;SDS011;50681;53.334;-6.536;2024-03-17T08:38:23;17.50;;;2.97;;
64353;SDS011;50681;53.334;-6.536;2024-03-17T08:43:15;14.90;;;2.30;;
64353;SDS011;50681;53.334;-6.536;2024-03-17T08:45:40;11.17;;;2.00;;
64353;SDS011;50681;53.334;-6.536;2024-03-17T08:48:06;18.23;;;2.00;;
64353;SDS011;50681;53.334;-6.536;2024-03-17T08:50:31;22.88;;;3.15;;
64353;SDS011;50681;53.334;-6.536;2024-03-17T08:52:59;10.88;;;1.83;;
64353;SDS011;50681;53.334;-6.536;2024-03-17T08:55:24;11.73;;;1.80;;
64353;SDS011;50681;53.334;-6.536;2024-03-17T08:57:50;15.93;;;2.00;;
64353;SDS011;50681;53.334;-6.536;2024-03-17T09:00:15;8.03;;;1.60;;
64353;SDS011;50681;53.334;-6.536;2024-03-17T09:02:41;14.70;;;2.10;;
64353;SDS011;50681;53.334;-6.536;2024-03-17T09:05:07;8.07;;;1.93;;
64353;SDS011;50681;53.334;-6.536;2024-03-17T09:07:32;11.63;;;2.60;;
64353;SDS011;50681;53.334;-6.536;2024-03-17T09:09:58;12.00;;;1.93;;
64353;SDS011;50681;53.334;-6.536;2024-03-17T09:12:25;8.63;;;1.65;;
64353;SDS011;50681;53.334;-6.536;2024-03-17T09:17:16;7.22;;;1.80;;
64353;SDS011;50681;53.334;-6.536;2024-03-17T09:19:44;7.90;;;1.55;;
64353;SDS011;50681;53.334;-6.536;2024-03-17T09:22:10;9.23;;;3.27;;
64353;SDS011;50681;53.334;-6.536;2024-03-17T09:24:35;9.85;;;4.80;;
64353;SDS011;50681;53.334;-6.536;2024-03-17T09:27:01;10.17;;;2.30;;
64353;SDS011;50681;53.334;-6.536;2024-03-17T09:29:27;9.30;;;2.13;;
64353;SDS011;50681;53.334;-6.536;2024-03-17T09:31:56;6.43;;;1.50;;
64353;SDS011;50681;53.334;-6.536;2024-03-17T09:34:22;13.50;;;8.85;;
64353;SDS011;50681;53.334;-6.536;2024-03-17T09:36:48;12.50;;;5.47;;
64353;SDS011;50681;53.334;-6.536;2024-03-17T09:39:14;6.35;;;1.90;;
64353;SDS011;50681;53.334;-6.536;2024-03-17T09:41:41;6.05;;;2.03;;
64353;SDS011;50681;53.334;-6.536;2024-03-17T09:44:09;9.45;;;2.03;;
64353;SDS011;50681;53.334;-6.536;2024-03-17T09:46:40;10.35;;;3.80;;
64353;SDS011;50681;53.334;-6.536;2024-03-17T09:49:13;4.78;;;1.92;;
64353;SDS011;50681;53.334;-6.536;2024-03-17T09:51:41;22.08;;;10.00;;
64353;SDS011;50681;53.334;-6.536;2024-03-17T09:54:15;11.60;;;5.70;;
64353;SDS011;50681;53.334;-6.536;2024-03-17T09:56:43;18.50;;;8.73;;
64353;SDS011;50681;53.334;-6.536;2024-03-17T09:59:09;36.10;;;19.37;;
64353;SDS011;50681;53.334;-6.536;2024-03-17T10:01:34;22.73;;;10.53;;
64353;SDS011;50681;53.334;-6.536;2024-03-17T10:04:00;21.90;;;8.35;;
64353;SDS011;50681;53.334;-6.536;2024-03-17T10:06:30;11.73;;;7.75;;
64353;SDS011;50681;53.334;-6.536;2024-03-17T10:08:57;23.10;;;10.90;;
64353;SDS011;50681;53.334;-6.536;2024-03-17T10:11:24;19.48;;;7.78;;
64353;SDS011;50681;53.334;-6.536;2024-03-17T10:16:30;24.00;;;9.88;;
64353;SDS011;50681;53.334;-6.536;2024-03-17T10:19:07;22.10;;;9.77;;
64353;SDS011;50681;53.334;-6.536;2024-03-17T10:21:35;27.05;;;10.07;;
64353;SDS011;50681;53.334;-6.536;2024-03-17T10:24:13;26.02;;;11.52;;
64353;SDS011;50681;53.334;-6.536;2024-03-17T10:26:44;36.53;;;16.17;;
64353;SDS011;50681;53.334;-6.536;2024-03-17T10:29:19;62.05;;;26.48;;
64353;SDS011;50681;53.334;-6.536;2024-03-17T10:31:56;49.40;;;23.33;;
64353;SDS011;50681;53.334;-6.536;2024-03-17T10:34:25;26.40;;;9.48;;
64353;SDS011;50681;53.334;-6.536;2024-03-17T10:37:10;26.83;;;12.60;;
64353;SDS011;50681;53.334;-6.536;2024-03-17T10:39:41;38.08;;;19.05;;
64353;SDS011;50681;53.334;-6.536;2024-03-17T10:42:09;17.40;;;4.18;;
64353;SDS011;50681;53.334;-6.536;2024-03-17T10:44:45;19.30;;;6.82;;
64353;SDS011;50681;53.334;-6.536;2024-03-17T10:47:32;32.45;;;13.55;;
64353;SDS011;50681;53.334;-6.536;2024-03-17T10:49:57;46.78;;;20.38;;
64353;SDS011;50681;53.334;-6.536;2024-03-17T10:52:29;35.50;;;12.43;;
64353;SDS011;50681;53.334;-6.536;2024-03-17T10:55:00;57.67;;;15.75;;
64353;SDS011;50681;53.334;-6.536;2024-03-17T10:59:59;22.87;;;9.43;;
64353;SDS011;50681;53.334;-6.536;2024-03-17T11:02:29;20.90;;;7.63;;
64353;SDS011;50681;53.334;-6.536;2024-03-17T11:05:01;22.23;;;9.15;;
64353;SDS011;50681;53.334;-6.536;2024-03-17T11:07:28;19.35;;;7.68;;
64353;SDS011;50681;53.334;-6.536;2024-03-17T11:09:57;14.55;;;5.47;;
64353;SDS011;50681;53.334;-6.536;2024-03-17T11:12:44;13.73;;;4.75;;
64353;SDS011;50681;53.334;-6.536;2024-03-17T11:18:41;18.63;;;4.45;;
64353;SDS011;50681;53.334;-6.536;2024-03-17T11:23:33;11.25;;;2.78;;
64353;SDS011;50681;53.334;-6.536;2024-03-17T11:26:02;12.68;;;2.53;;
64353;SDS011;50681;53.334;-6.536;2024-03-17T11:29:03;18.10;;;4.35;;
64353;SDS011;50681;53.334;-6.536;2024-03-17T11:31:33;19.67;;;7.82;;
64353;SDS011;50681;53.334;-6.536;2024-03-17T11:34:03;16.67;;;8.88;;
64353;SDS011;50681;53.334;-6.536;2024-03-17T11:36:36;21.23;;;9.90;;
64353;SDS011;50681;53.334;-6.536;2024-03-17T11:41:52;16.83;;;7.32;;
64353;SDS011;50681;53.334;-6.536;2024-03-17T11:49:24;18.83;;;7.47;;
64353;SDS011;50681;53.334;-6.536;2024-03-17T11:51:54;15.63;;;9.52;;
64353;SDS011;50681;53.334;-6.536;2024-03-17T11:54:22;12.43;;;4.05;;
64353;SDS011;50681;53.334;-6.536;2024-03-17T11:56:50;11.07;;;4.10;;
64353;SDS011;50681;53.334;-6.536;2024-03-17T11:59:18;9.48;;;4.70;;
64353;SDS011;50681;53.334;-6.536;2024-03-17T12:01:47;7.68;;;3.95;;
64353;SDS011;50681;53.334;-6.536;2024-03-17T12:04:45;5.80;;;1.98;;
64353;SDS011;50681;53.334;-6.536;2024-03-17T12:07:12;4.57;;;1.95;;
64353;SDS011;50681;53.334;-6.536;2024-03-17T12:09:40;6.10;;;1.63;;
64353;SDS011;50681;53.334;-6.536;2024-03-17T12:12:11;4.78;;;1.10;;
64353;SDS011;50681;53.334;-6.536;2024-03-17T12:14:41;4.53;;;1.23;;
64353;SDS011;50681;53.334;-6.536;2024-03-17T12:17:07;3.57;;;1.20;;
64353;SDS011;50681;53.334;-6.536;2024-03-17T12:19:34;4.80;;;1.30;;
64353;SDS011;50681;53.334;-6.536;2024-03-17T12:22:01;1.73;;;1.00;;
64353;SDS011;50681;53.334;-6.536;2024-03-17T12:24:33;2.95;;;1.05;;
64353;SDS011;50681;53.334;-6.536;2024-03-17T12:27:01;3.83;;;1.30;;
64353;SDS011;50681;53.334;-6.536;2024-03-17T12:29:30;4.30;;;1.10;;
64353;SDS011;50681;53.334;-6.536;2024-03-17T12:32:05;2.95;;;1.00;;
64353;SDS011;50681;53.334;-6.536;2024-03-17T12:34:34;4.00;;;1.13;;
64353;SDS011;50681;53.334;-6.536;2024-03-17T12:37:00;2.83;;;1.20;;
64353;SDS011;50681;53.334;-6.536;2024-03-17T12:42:10;4.97;;;0.95;;
64353;SDS011;50681;53.334;-6.536;2024-03-17T12:45:00;2.80;;;1.05;;
64353;SDS011;50681;53.334;-6.536;2024-03-17T12:47:30;2.08;;;0.88;;
64353;SDS011;50681;53.334;-6.536;2024-03-17T12:49:57;6.88;;;1.15;;
64353;SDS011;50681;53.334;-6.536;2024-03-17T12:52:24;3.22;;;1.00;;
64353;SDS011;50681;53.334;-6.536;2024-03-17T12:55:03;1.15;;;0.50;;
64353;SDS011;50681;53.334;-6.536;2024-03-17T12:57:52;3.67;;;0.98;;
64353;SDS011;50681;53.334;-6.536;2024-03-17T13:00:36;2.08;;;0.75;;
64353;SDS011;50681;53.334;-6.536;2024-03-17T13:05:28;2.00;;;0.73;;
64353;SDS011;50681;53.334;-6.536;2024-03-17T13:07:57;3.40;;;0.60;;
64353;SDS011;50681;53.334;-6.536;2024-03-17T13:12:57;2.93;;;0.50;;
64353;SDS011;50681;53.334;-6.536;2024-03-17T13:15:27;2.05;;;0.50;;
64353;SDS011;50681;53.334;-6.536;2024-03-17T13:17:55;1.15;;;0.47;;
64353;SDS011;50681;53.334;-6.536;2024-03-17T13:20:21;2.78;;;0.82;;
64353;SDS011;50681;53.334;-6.536;2024-03-17T13:22:47;1.55;;;0.55;;
64353;SDS011;50681;53.334;-6.536;2024-03-17T13:25:16;1.43;;;0.77;;
64353;SDS011;50681;53.334;-6.536;2024-03-17T13:27:45;3.67;;;0.73;;
64353;SDS011;50681;53.334;-6.536;2024-03-17T13:30:14;9.75;;;5.60;;
64353;SDS011;50681;53.334;-6.536;2024-03-17T13:32:41;5.35;;;3.88;;
64353;SDS011;50681;53.334;-6.536;2024-03-17T13:35:19;5.45;;;3.25;;
64353;SDS011;50681;53.334;-6.536;2024-03-17T13:37:45;5.03;;;3.45;;
64353;SDS011;50681;53.334;-6.536;2024-03-17T13:40:12;3.47;;;1.70;;
64353;SDS011;50681;53.334;-6.536;2024-03-17T13:42:41;2.10;;;0.98;;
64353;SDS011;50681;53.334;-6.536;2024-03-17T13:45:09;1.85;;;0.70;;
64353;SDS011;50681;53.334;-6.536;2024-03-17T13:47:36;2.45;;;0.60;;
64353;SDS011;50681;53.334;-6.536;2024-03-17T13:50:02;2.70;;;1.63;;
64353;SDS011;50681;53.334;-6.536;2024-03-17T13:52:31;4.10;;;1.40;;
64353;SDS011;50681;53.334;-6.536;2024-03-17T13:54:57;3.03;;;1.00;;
64353;SDS011;50681;53.334;-6.536;2024-03-17T13:57:24;1.65;;;0.82;;
64353;SDS011;50681;53.334;-6.536;2024-03-17T13:59:50;2.40;;;1.08;;
64353;SDS011;50681;53.334;-6.536;2024-03-17T14:02:20;4.65;;;1.30;;
64353;SDS011;50681;53.334;-6.536;2024-03-17T14:04:45;20.13;;;2.47;;
64353;SDS011;50681;53.334;-6.536;2024-03-17T14:07:11;13.07;;;2.00;;
64353;SDS011;50681;53.334;-6.536;2024-03-17T14:09:36;6.70;;;1.90;;
64353;SDS011;50681;53.334;-6.536;2024-03-17T14:12:02;4.22;;;1.20;;
64353;SDS011;50681;53.334;-6.536;2024-03-17T14:14:27;6.22;;;1.10;;
64353;SDS011;50681;53.334;-6.536;2024-03-17T14:16:53;3.78;;;1.52;;
64353;SDS011;50681;53.334;-6.536;2024-03-17T14:19:21;21.50;;;4.90;;
64353;SDS011;50681;53.334;-6.536;2024-03-17T14:21:47;7.88;;;2.20;;
64353;SDS011;50681;53.334;-6.536;2024-03-17T14:24:13;10.50;;;2.15;;
64353;SDS011;50681;53.334;-6.536;2024-03-17T14:26:39;11.90;;;2.85;;
64353;SDS011;50681;53.334;-6.536;2024-03-17T14:29:05;18.25;;;3.00;;
64353;SDS011;50681;53.334;-6.536;2024-03-17T14:31:31;11.03;;;2.37;;
64353;SDS011;50681;53.334;-6.536;2024-03-17T14:33:59;12.32;;;2.33;;
64353;SDS011;50681;53.334;-6.536;2024-03-17T14:36:25;8.80;;;2.33;;
64353;SDS011;50681;53.334;-6.536;2024-03-17T14:38:53;10.05;;;1.95;;
64353;SDS011;50681;53.334;-6.536;2024-03-17T14:41:18;13.07;;;2.93;;
64353;SDS011;50681;53.334;-6.536;2024-03-17T14:43:44;10.40;;;2.25;;
64353;SDS011;50681;53.334;-6.536;2024-03-17T14:51:04;10.23;;;3.90;;
64353;SDS011;50681;53.334;-6.536;2024-03-17T14:53:29;6.47;;;1.73;;
64353;SDS011;50681;53.334;-6.536;2024-03-17T14:55:54;47.10;;;17.27;;
64353;SDS011;50681;53.334;-6.536;2024-03-17T14:58:20;15.77;;;4.37;;
64353;SDS011;50681;53.334;-6.536;2024-03-17T15:00:46;19.33;;;5.22;;
64353;SDS011;50681;53.334;-6.536;2024-03-17T15:03:12;12.82;;;3.10;;
64353;SDS011;50681;53.334;-6.536;2024-03-17T15:05:38;9.00;;;2.72;;
64353;SDS011;50681;53.334;-6.536;2024-03-17T15:08:04;17.27;;;5.70;;
64353;SDS011;50681;53.334;-6.536;2024-03-17T15:10:30;12.70;;;3.45;;
64353;SDS011;50681;53.334;-6.536;2024-03-17T15:12:56;13.17;;;2.57;;
64353;SDS011;50681;53.334;-6.536;2024-03-17T15:15:21;31.33;;;11.10;;
64353;SDS011;50681;53.334;-6.536;2024-03-17T15:17:47;26.30;;;10.25;;